EDT,Max TemperatureF,Mean TemperatureF,Min TemperatureF,Max Dew PointF,MeanDew PointF,Min DewpointF,Max Humidity, Mean Humidity, Min Humidity, Max Sea Level PressureIn, Mean Sea Level PressureIn, Min Sea Level PressureIn, Max VisibilityMiles, Mean VisibilityMiles, Min VisibilityMiles, Max Wind SpeedMPH, Mean Wind SpeedMPH, Max Gust SpeedMPH,PrecipitationIn, CloudCover, Events, WindDirDegrees
2012-9-1,89,80,71,72,65,55,94,66,31,30.06,30.00,29.95,10,10,9,15,7,18,0.00,1,,301
2012-9-2,78,74,71,72,70,68,94,85,69,30.09,30.06,30.03,10,10,5,12,6,,0.05,7,,109
2012-9-3,75,72,69,72,68,63,94,83,69,30.15,30.11,30.07,10,10,2,15,8,22,0.10,8,,103
2012-9-4,78,74,69,75,72,64,100,95,78,30.09,29.99,29.88,10,8,2,10,4,,1.56,7,Thunderstorm,175
2012-9-5,84,76,69,75,73,68,100,91,74,29.87,29.82,29.78,10,8,0,13,8,22,0.46,5,Thunderstorm,230
2012-9-6,77,70,64,72,68,63,100,90,78,29.93,29.89,29.84,10,10,9,7,3,,0.00,0,,264
2012-9-7,87,76,66,73,69,64,100,79,55,29.94,29.91,29.85,10,8,0,9,5,,0.00,2,,218
2012-9-8,84,74,64,75,70,63,100,86,62,29.89,29.76,29.61,10,10,2,17,7,29,0.60,6,Thunderstorm,204
2012-9-9,75,68,62,63,60,54,94,78,50,29.90,29.84,29.78,10,10,10,9,5,,0.01,3,,313
2012-9-10,73,64,55,55,49,45,94,62,36,30.14,30.00,29.89,10,10,10,20,9,25,0.00,1,,322
2012-9-11,73,60,48,54,46,37,87,62,29,30.30,30.24,30.14,10,10,10,9,5,,0.00,0,,300
2012-9-12,77,64,51,55,53,48,94,66,36,30.38,30.34,30.30,10,10,10,10,4,,0.00,0,,233
2012-9-13,77,66,55,61,57,52,94,73,50,30.40,30.35,30.29,10,10,9,10,4,,0.00,0,,207
2012-9-14,77,66,55,63,59,54,94,77,50,30.30,30.21,30.11,10,10,10,12,4,17,0.00,0,,200
2012-9-15,73,64,55,61,51,46,94,63,38,30.15,30.11,30.08,10,10,10,21,8,28,0.00,1,,307
2012-9-16,75,63,51,52,49,46,82,63,36,30.15,30.10,30.05,10,10,10,10,5,,0.00,1,,286
2012-9-17,77,64,50,61,51,46,88,65,36,30.13,30.09,30.05,10,10,10,10,4,16,0.00,1,,239
2012-9-18,75,72,68,72,67,63,94,85,78,30.04,29.83,29.69,10,10,3,24,11,38,1.01,8,,175
2012-9-19,69,61,53,66,51,43,100,66,38,30.17,30.01,29.76,10,10,10,21,9,28,0.00,3,,317
2012-9-20,69,61,53,59,54,46,88,75,60,30.20,30.15,30.11,10,10,10,13,6,,0.00,2,,59
2012-9-21,69,62,55,59,55,52,94,77,56,30.12,30.08,30.01,10,10,10,12,3,,0.00,0,,92
2012-9-22,77,65,53,66,62,52,100,84,69,30.01,29.90,29.81,10,10,8,15,5,23,0.30,3,,175
2012-9-23,69,60,51,64,48,39,100,65,33,30.13,30.03,29.88,10,10,7,17,8,22,0.00,2,,298
2012-9-24,68,57,46,46,43,37,93,63,35,30.18,30.14,30.11,10,10,10,15,7,20,0.00,1,,282
2012-9-25,73,60,48,54,47,39,82,62,41,30.22,30.18,30.14,10,10,10,15,7,21,0.00,0,,213
2012-9-26,78,70,62,64,59,54,83,68,54,30.16,30.09,30.03,10,10,10,13,8,18,0.00,5,,229
2012-9-27,73,68,62,64,62,61,94,85,65,30.19,30.14,30.06,10,10,4,8,4,,0.08,4,,252
2012-9-28,78,71,64,66,65,63,100,84,61,30.16,30.02,29.93,10,10,6,14,7,21,0.04,6,,157
2012-9-29,66,60,55,63,56,54,100,82,64,29.95,29.92,29.88,10,9,5,10,6,,0.07,7,,311
2012-9-30,69,60,51,54,50,46,100,74,43,29.89,29.84,29.79,10,10,10,13,5,,0.00,1,,288